Elkton, MI

1:55 PM EDT on October 31, 2014 (GMT -0400)
Huron County Memorial | Change Station
CLOSE
Current Station
Airport
Location: Bad Axe,
Elevation: 764 ft
Nearby Weather Stations

Elev 764 ft 43.78 °N, 82.99 °W | Updated 16 minutes ago

Rain
Rain
39 °F
Feels Like 30 °F
N
17
Wind Variable Wind from NNE
Gusts 32 mph

Today
High -- | Low -- °F
--% Chance of Precip.
Yesterday
High -- | Low -- °F
Precip. -- in
8:07 AM 6:24 PM
First Quarter, 57% visible
Pressure 29.94 in
Visibility 5.0 miles
Clouds Overcast 1100 ft
Windchill 30 °F
Dew Point 38 °F
Humidity 97%
Rainfall 0.00 in
Snow Depth Not available.
UV 1 out of 12
Pollen .10 out of 12
Air Quality Not available.
Flu Activity Not available.
METAR KBAX 311739Z AUTO 02015G28KT 5SM -RA OVC011 04/03 A2994 RMK AO2 T00370033

More Conditions Fewer Conditions

Pressure 29.94 in
Visibility 5.0 miles
Clouds Overcast 1100 ft
Windchill 30 °F
Dew Point 38 °F
Humidity 97%
Rainfall 0.00 in
Snow Depth Not available.
UV 1 out of 12
Pollen .10 out of 12
Air Quality Not available.
Flu Activity Not available.
METAR KBAX 311739Z AUTO 02015G28KT 5SM -RA OVC011 04/03 A2994 RMK AO2 T00370033

More Conditions Fewer Conditions

10-Day Weather Forecast

Almanac

Astronomy

Oct. 31, 2014 Rise Set
Actual Time
Civil Twilight
Nautical Twilight
Astronomical Twilight
Moon
Length of Visible Light
Length of Day
Tomorrow will be .
, % of the Moon is Illuminated

Today's Extremes

State Highs State Lows

Community

WunderPhotos

Upload Photos

1,766,673 photos uploaded!

WunderBlogs® & News

Nearby

Air Quality

  Air Quality AQ Index Pollutant
Not available.

Snow Depth

Station Depth Elevation

Earthquake Activity

City Distance Mag. Time & Date
Minimum magnitude displayed is 2.5.

Coastal Water Temperatures

Place Temperature

Nearby Weather Stations